Time;durP1;ratioP1;P1;durP2;ratioP2;P2;SDS_P1;SDS_P2;PMS_P1;PMS_P2;Temp;Humidity;BMP_temperature;BMP_pressure;BME280_temperature;BME280_humidity;BME280_pressure;Samples;Min_cycle;Max_cycle;Signal;HPM_P1;HPM_P2
2022/02/17 00:00:33;;;;;;;27.70;5.63;;;9.60;81.80;;;;;;5059952;28;20157;-92
2022/02/17 00:03:02;;;;;;;29.20;5.67;;;9.70;81.20;;;;;;5041186;28;20593;-92
2022/02/17 00:05:30;;;;;;;20.17;4.70;;;9.50;82.00;;;;;;5041132;28;20176;-92
2022/02/17 00:07:59;;;;;;;31.73;5.87;;;9.50;81.70;;;;;;5043812;28;20253;-92
2022/02/17 00:10:40;;;;;;;31.43;5.50;;;9.50;81.20;;;;;;5043105;28;20260;-93
2022/02/17 00:13:06;;;;;;;19.37;4.50;;;9.60;80.70;;;;;;5046832;28;20186;-92
2022/02/17 00:15:43;;;;;;;23.37;4.77;;;9.60;81.10;;;;;;5046780;28;20255;-92
2022/02/17 00:18:24;;;;;;;23.50;4.87;;;9.60;80.60;;;;;;5043620;28;20218;-93
2022/02/17 00:20:55;;;;;;;21.37;4.57;;;9.70;80.00;;;;;;5043074;28;20579;-92
2022/02/17 00:23:21;;;;;;;23.93;4.63;;;9.60;80.20;;;;;;5043113;28;20176;-92
2022/02/17 00:25:53;;;;;;;31.67;6.67;;;9.60;79.80;;;;;;5044038;28;20179;-92
2022/02/17 00:28:31;;;;;;;21.63;4.90;;;9.70;79.40;;;;;;5043229;28;20203;-92
2022/02/17 00:30:57;;;;;;;27.73;6.27;;;9.70;79.10;;;;;;5046076;28;20225;-92
2022/02/17 00:33:22;;;;;;;19.87;4.50;;;9.70;78.90;;;;;;5046719;28;20267;-93
2022/02/17 00:35:48;;;;;;;16.73;5.10;;;9.70;78.40;;;;;;5044214;28;20183;-92
2022/02/17 00:38:17;;;;;;;11.73;4.03;;;9.80;77.60;;;;;;5049795;28;20268;-93
2022/02/17 00:40:43;;;;;;;24.17;6.20;;;9.80;77.00;;;;;;5048515;28;20171;-92
2022/02/17 00:43:15;;;;;;;20.87;4.90;;;9.60;78.60;;;;;;5043856;28;20175;-91
2022/02/17 00:45:40;;;;;;;16.87;4.43;;;9.80;76.10;;;;;;5040605;28;20168;-92
2022/02/17 00:48:06;;;;;;;35.07;6.10;;;9.80;77.10;;;;;;5041939;28;20198;-92
2022/02/17 00:50:40;;;;;;;19.23;4.27;;;9.80;76.00;;;;;;5041670;28;20195;-92
2022/02/17 00:53:06;;;;;;;22.57;4.63;;;9.80;76.20;;;;;;5044392;28;20542;-92
2022/02/17 00:55:39;;;;;;;22.90;5.07;;;9.80;75.20;;;;;;5044046;28;20283;-92
2022/02/17 00:58:07;;;;;;;16.30;4.10;;;9.90;74.70;;;;;;5043566;28;20263;-93
2022/02/17 01:00:35;;;;;;;24.73;4.27;;;9.80;75.60;;;;;;5047244;28;20187;-92
2022/02/17 01:03:01;;;;;;;19.10;4.37;;;9.90;74.90;;;;;;5047295;28;20204;-92
2022/02/17 01:05:26;;;;;;;13.63;3.67;;;9.90;74.60;;;;;;5048795;28;20164;-92
2022/02/17 01:07:52;;;;;;;15.90;4.40;;;9.90;75.40;;;;;;5045988;28;20673;-92
2022/02/17 01:10:17;;;;;;;13.70;4.40;;;10.00;74.50;;;;;;5045682;28;20200;-92
2022/02/17 01:12:43;;;;;;;22.77;5.10;;;10.00;73.70;;;;;;5046310;28;20170;-91
2022/02/17 01:15:09;;;;;;;15.60;4.63;;;9.80;75.20;;;;;;5046336;28;20180;-92
2022/02/17 01:17:38;;;;;;;14.23;3.50;;;10.00;74.30;;;;;;5045311;28;20271;-92
2022/02/17 01:20:06;;;;;;;19.70;4.33;;;9.90;74.50;;;;;;5044216;28;20251;-92
2022/02/17 01:22:32;;;;;;;16.20;3.63;;;9.80;75.00;;;;;;5042997;28;20199;-91
2022/02/17 01:24:58;;;;;;;9.33;3.40;;;9.80;75.10;;;;;;5037405;28;20195;-92
2022/02/17 01:27:23;;;;;;;13.73;5.10;;;10.00;73.30;;;;;;5037565;28;20208;-92
2022/02/17 01:29:49;;;;;;;17.67;4.73;;;9.80;74.90;;;;;;5036942;28;20194;-91
2022/02/17 01:32:14;;;;;;;16.43;3.43;;;9.80;74.80;;;;;;5055782;28;20539;-92
2022/02/17 01:34:44;;;;;;;24.27;4.00;;;9.70;75.20;;;;;;5043480;28;20172;-91
2022/02/17 01:37:10;;;;;;;21.42;5.57;;;9.80;74.00;;;;;;5040394;28;20420;-92
2022/02/17 01:39:36;;;;;;;23.63;6.13;;;9.80;74.50;;;;;;5039311;28;20258;-91
2022/02/17 01:42:06;;;;;;;12.27;4.33;;;9.90;73.10;;;;;;5038690;28;20598;-91
2022/02/17 01:44:32;;;;;;;13.00;3.80;;;9.90;72.90;;;;;;5040108;28;20172;-92
2022/02/17 01:46:58;;;;;;;12.47;3.13;;;9.90;73.00;;;;;;5040770;28;20245;-91
2022/02/17 01:49:24;;;;;;;12.33;4.17;;;9.80;73.60;;;;;;5040560;28;20234;-91
2022/02/17 01:51:49;;;;;;;18.17;3.63;;;9.80;73.40;;;;;;5039234;28;20200;-91
2022/02/17 01:54:17;;;;;;;18.67;3.73;;;9.80;73.80;;;;;;5042050;28;20173;-90
2022/02/17 01:56:51;;;;;;;16.50;3.93;;;9.70;74.00;;;;;;5039714;28;20180;-92
2022/02/17 01:59:16;;;;;;;15.67;4.67;;;9.80;72.10;;;;;;5045969;28;20214;-91
2022/02/17 02:01:42;;;;;;;20.00;4.83;;;9.80;71.70;;;;;;5048646;28;20175;-92
2022/02/17 02:04:08;;;;;;;14.43;4.80;;;9.60;72.90;;;;;;5053227;28;20195;-92
2022/02/17 02:06:33;;;;;;;27.03;5.43;;;9.50;73.20;;;;;;5047168;28;20197;-92
2022/02/17 02:09:01;;;;;;;29.60;6.00;;;9.40;73.00;;;;;;5046345;28;20206;-93
2022/02/17 02:11:30;;;;;;;23.77;4.93;;;9.30;73.50;;;;;;5047735;28;20661;-92
2022/02/17 02:13:56;;;;;;;21.17;4.97;;;9.30;72.70;;;;;;5062478;28;20168;-91
2022/02/17 02:16:21;;;;;;;29.93;5.23;;;9.30;72.80;;;;;;5046599;28;20242;-92
2022/02/17 02:18:47;;;;;;;25.43;5.37;;;9.30;72.60;;;;;;5046874;28;20200;-92
2022/02/17 02:21:13;;;;;;;21.87;5.27;;;9.20;73.00;;;;;;5047049;28;20239;-92
2022/02/17 02:23:39;;;;;;;32.50;6.13;;;9.10;73.80;;;;;;5047800;28;20191;-93
2022/02/17 02:26:04;;;;;;;23.73;5.37;;;9.00;74.90;;;;;;5048200;28;20556;-92
2022/02/17 02:28:35;;;;;;;29.57;6.10;;;9.00;74.40;;;;;;5051386;28;20200;-92
2022/02/17 02:31:00;;;;;;;25.97;6.10;;;8.90;74.90;;;;;;5068896;28;20271;-92
2022/02/17 02:33:26;;;;;;;30.43;6.27;;;8.90;74.50;;;;;;5050935;28;20176;-92
2022/02/17 02:35:54;;;;;;;25.30;6.50;;;8.80;74.50;;;;;;5053611;28;20192;-92
2022/02/17 02:38:26;;;;;;;36.63;6.23;;;8.80;75.00;;;;;;5056095;28;20220;-92
2022/02/17 02:40:55;;;;;;;31.43;6.33;;;8.70;75.70;;;;;;5052414;28;20184;-92
2022/02/17 02:43:24;;;;;;;34.43;6.17;;;8.70;75.30;;;;;;5050826;28;20596;-91
2022/02/17 02:45:49;;;;;;;29.73;5.63;;;8.80;75.10;;;;;;5054696;28;20546;-92
2022/02/17 02:48:15;;;;;;;28.37;5.40;;;8.80;75.40;;;;;;5052576;28;20230;-92
2022/02/17 02:50:44;;;;;;;24.50;5.97;;;8.70;76.20;;;;;;5052487;28;20234;-92
2022/02/17 02:53:14;;;;;;;29.20;6.23;;;8.70;76.60;;;;;;5047899;28;20557;-91
2022/02/17 02:55:43;;;;;;;17.63;4.67;;;8.70;76.10;;;;;;5050473;28;20176;-92
2022/02/17 02:58:09;;;;;;;24.97;4.90;;;8.60;76.30;;;;;;5049411;28;20195;-92
2022/02/17 03:00:38;;;;;;;22.20;5.60;;;8.70;76.10;;;;;;5070516;28;20235;-92
2022/02/17 03:03:04;;;;;;;29.07;5.93;;;8.60;76.40;;;;;;5055981;28;20184;-92
2022/02/17 03:05:33;;;;;;;28.93;4.70;;;8.50;77.10;;;;;;5055588;28;20184;-92
2022/02/17 03:07:58;;;;;;;19.07;4.30;;;8.60;76.60;;;;;;5052395;28;20203;-93
2022/02/17 03:10:27;;;;;;;23.87;5.07;;;8.60;75.80;;;;;;5055905;28;20203;-92
2022/02/17 03:12:53;;;;;;;20.07;5.23;;;8.60;76.60;;;;;;5055027;28;20233;-92
2022/02/17 03:15:20;;;;;;;29.57;5.13;;;8.70;75.10;;;;;;5056068;28;20253;-92
2022/02/17 03:17:46;;;;;;;19.50;4.70;;;8.50;76.10;;;;;;5053264;28;20196;-92
2022/02/17 03:20:12;;;;;;;30.17;5.57;;;8.50;75.60;;;;;;5050477;28;20255;-92
2022/02/17 03:22:39;;;;;;;13.47;3.90;;;8.60;75.20;;;;;;5055866;28;20635;-92
2022/02/17 03:25:09;;;;;;;24.37;4.10;;;8.60;75.60;;;;;;5048970;28;20214;-92
2022/02/17 03:27:35;;;;;;;27.50;5.57;;;8.60;75.20;;;;;;5055161;28;20196;-92
2022/02/17 03:30:11;;;;;;;27.73;5.57;;;8.50;75.90;;;;;;5057507;28;20191;-92
2022/02/17 03:32:38;;;;;;;28.70;5.80;;;8.50;76.00;;;;;;5052118;28;20255;-93
2022/02/17 03:35:05;;;;;;;29.83;6.20;;;8.50;76.10;;;;;;5051945;28;20183;-92
2022/02/17 03:37:31;;;;;;;17.37;4.07;;;8.60;75.50;;;;;;5050063;28;20766;-91
2022/02/17 03:39:56;;;;;;;32.73;5.23;;;8.60;74.50;;;;;;5049683;28;20176;-92
2022/02/17 03:42:22;;;;;;;18.20;4.93;;;8.50;74.90;;;;;;5049572;28;20182;-92
2022/02/17 03:44:48;;;;;;;28.13;4.50;;;8.50;75.30;;;;;;5050974;28;20178;-91
2022/02/17 03:47:14;;;;;;;22.13;5.07;;;8.50;75.30;;;;;;5046840;28;20226;-92
2022/02/17 03:49:39;;;;;;;30.67;6.73;;;8.50;75.10;;;;;;5048551;28;20180;-92
2022/02/17 03:52:05;;;;;;;23.87;5.33;;;8.40;75.40;;;;;;5054559;28;20204;-91
2022/02/17 03:54:31;;;;;;;35.10;7.07;;;8.30;76.50;;;;;;5053510;28;20187;-91
2022/02/17 03:56:56;;;;;;;24.30;6.13;;;8.40;75.50;;;;;;5051127;28;20204;-92
2022/02/17 03:59:22;;;;;;;31.27;4.87;;;8.50;75.00;;;;;;5048348;28;20183;-92
2022/02/17 04:01:48;;;;;;;27.37;5.53;;;8.50;74.90;;;;;;5050309;28;20197;-92
2022/02/17 04:04:14;;;;;;;26.30;6.30;;;8.50;74.80;;;;;;5054036;28;20188;-91
2022/02/17 04:06:40;;;;;;;22.93;5.07;;;8.40;75.10;;;;;;5052618;28;20222;-92
2022/02/17 04:09:06;;;;;;;21.57;5.10;;;8.40;74.50;;;;;;5045297;28;20626;-92
2022/02/17 04:11:33;;;;;;;23.30;5.00;;;8.50;73.90;;;;;;5043631;28;20207;-91
2022/02/17 04:13:59;;;;;;;28.30;6.30;;;8.50;74.00;;;;;;5043975;28;20182;-91
2022/02/17 04:16:25;;;;;;;14.17;3.50;;;8.40;74.30;;;;;;5044569;28;20176;-91
2022/02/17 04:18:51;;;;;;;22.93;6.03;;;8.40;74.50;;;;;;5045817;28;20602;-91
2022/02/17 04:21:19;;;;;;;22.60;4.70;;;8.30;75.30;;;;;;5043429;28;20200;-90
2022/02/17 04:23:45;;;;;;;28.17;6.37;;;8.40;74.90;;;;;;5042792;28;20238;-91
2022/02/17 04:26:12;;;;;;;19.07;4.57;;;8.30;75.10;;;;;;5050253;28;20282;-92
2022/02/17 04:28:38;;;;;;;24.40;5.20;;;8.20;76.10;;;;;;5054265;28;20203;-92
2022/02/17 04:31:05;;;;;;;19.97;4.90;;;8.20;76.20;;;;;;5045210;28;20673;-91
2022/02/17 04:33:39;;;;;;;17.40;4.30;;;8.30;74.40;;;;;;5052806;28;20176;-92
2022/02/17 04:36:05;;;;;;;28.27;5.63;;;8.30;74.60;;;;;;5049556;28;20170;-91
2022/02/17 04:38:31;;;;;;;23.67;5.23;;;8.30;75.50;;;;;;5054963;28;20203;-92
2022/02/17 04:43:43;;;;;;;25.40;5.57;;;8.30;75.40;;;;;;5065251;28;20172;-90
2022/02/17 04:46:10;;;;;;;28.37;5.20;;;8.20;76.20;;;;;;5049807;28;20180;-92
2022/02/17 04:48:36;;;;;;;12.10;3.83;;;8.10;76.80;;;;;;5055491;28;20210;-92
2022/02/17 04:51:02;;;;;;;23.47;5.13;;;7.80;79.10;;;;;;5046353;28;20747;-92
2022/02/17 04:53:28;;;;;;;24.63;6.37;;;7.90;78.50;;;;;;5045125;28;20708;-91
2022/02/17 04:55:54;;;;;;;18.33;4.50;;;7.80;78.80;;;;;;5043593;28;20214;-91
2022/02/17 04:58:22;;;;;;;11.47;4.13;;;7.80;79.20;;;;;;5057761;28;20188;-92
2022/02/17 05:00:52;;;;;;;13.40;3.80;;;7.80;79.10;;;;;;5041969;28;20171;-91
2022/02/17 05:03:19;;;;;;;21.63;4.57;;;7.80;79.50;;;;;;5042446;28;20290;-91
2022/02/17 05:05:44;;;;;;;24.47;5.00;;;7.70;80.50;;;;;;5058348;28;20220;-91
2022/02/17 05:08:10;;;;;;;36.10;6.33;;;7.50;81.30;;;;;;5044197;28;20199;-91
2022/02/17 05:10:35;;;;;;;22.90;5.23;;;7.50;80.90;;;;;;5043366;28;20267;-91
2022/02/17 05:13:01;;;;;;;30.20;6.23;;;7.60;80.50;;;;;;5059249;28;20543;-91
2022/02/17 05:15:27;;;;;;;19.17;4.60;;;7.60;79.80;;;;;;5040290;28;20537;-91
2022/02/17 05:17:57;;;;;;;21.93;6.03;;;7.70;80.10;;;;;;5040539;28;20200;-91
2022/02/17 05:20:23;;;;;;;19.70;4.73;;;7.70;79.70;;;;;;5042462;28;20183;-92
2022/02/17 05:22:48;;;;;;;19.00;4.83;;;7.60;80.50;;;;;;5039565;28;20175;-91
2022/02/17 05:25:14;;;;;;;29.97;5.83;;;7.70;79.90;;;;;;5039856;28;20187;-91
2022/02/17 05:27:40;;;;;;;35.93;6.93;;;7.60;80.50;;;;;;5056215;28;20196;-91
2022/02/17 05:30:07;;;;;;;31.70;6.37;;;7.50;81.40;;;;;;5040315;28;20204;-91
2022/02/17 05:32:41;;;;;;;33.13;5.67;;;7.40;81.90;;;;;;5038410;28;20258;-91
2022/02/17 05:35:08;;;;;;;27.77;5.70;;;7.40;82.30;;;;;;5043281;28;20206;-92
2022/02/17 05:37:34;;;;;;;36.63;8.93;;;7.40;81.80;;;;;;5042197;28;20673;-91
2022/02/17 05:40:03;;;;;;;34.60;7.17;;;7.30;83.50;;;;;;5043957;28;20600;-91
2022/02/17 05:42:32;;;;;;;22.27;6.27;;;7.30;83.00;;;;;;5046566;28;20218;-92
2022/02/17 05:44:58;;;;;;;42.77;8.17;;;7.30;83.30;;;;;;5043389;28;20179;-92
2022/02/17 05:47:24;;;;;;;32.00;7.67;;;7.20;83.60;;;;;;5047903;28;20630;-91
2022/02/17 05:49:50;;;;;;;30.90;5.87;;;7.20;84.10;;;;;;5063152;28;20187;-91
2022/02/17 05:52:15;;;;;;;35.53;7.03;;;7.10;84.90;;;;;;5044323;28;20266;-91
2022/02/17 05:54:41;;;;;;;24.47;4.53;;;7.00;85.40;;;;;;5043024;28;20180;-91
2022/02/17 05:57:06;;;;;;;38.03;7.57;;;7.10;85.00;;;;;;5041474;28;20210;-91
2022/02/17 05:59:32;;;;;;;33.13;7.07;;;7.10;84.90;;;;;;5044049;28;20175;-90
2022/02/17 06:01:58;;;;;;;41.33;7.87;;;7.10;84.80;;;;;;5044566;28;20176;-91
2022/02/17 06:04:23;;;;;;;24.70;6.00;;;7.10;84.80;;;;;;5062408;28;20203;-91
2022/02/17 06:06:49;;;;;;;31.30;7.30;;;7.20;85.20;;;;;;5042687;28;20232;-91
2022/02/17 06:09:14;;;;;;;23.80;4.93;;;7.10;85.00;;;;;;5042765;28;20172;-91
2022/02/17 06:11:40;;;;;;;31.67;6.70;;;7.10;84.90;;;;;;5042490;28;20203;-91
2022/02/17 06:14:06;;;;;;;35.20;7.40;;;7.00;85.80;;;;;;5042740;28;20233;-91
2022/02/17 06:16:31;;;;;;;32.37;8.10;;;7.00;86.30;;;;;;5043029;28;20251;-92
2022/02/17 06:18:57;;;;;;;38.93;8.40;;;6.90;86.60;;;;;;5043497;28;20216;-91
2022/02/17 06:21:22;;;;;;;29.77;7.03;;;7.00;86.60;;;;;;5042401;28;20599;-91
2022/02/17 06:23:48;;;;;;;31.77;7.87;;;6.90;86.70;;;;;;5042363;28;20520;-89
2022/02/17 06:26:15;;;;;;;38.20;7.90;;;6.90;86.70;;;;;;5045253;28;20600;-92
2022/02/17 06:28:46;;;;;;;30.87;7.00;;;7.00;86.50;;;;;;5048447;28;20196;-91
2022/02/17 06:31:12;;;;;;;43.97;8.90;;;6.90;87.20;;;;;;5046799;28;20434;-92
2022/02/17 06:33:38;;;;;;;45.77;8.17;;;6.90;87.50;;;;;;5043335;28;20642;-91
2022/02/17 06:36:04;;;;;;;29.97;6.27;;;7.00;86.60;;;;;;5040883;28;20169;-90
2022/02/17 06:38:39;;;;;;;28.87;6.50;;;7.00;86.90;;;;;;5042333;28;20285;-90
2022/02/17 06:41:04;;;;;;;40.07;7.53;;;7.00;86.20;;;;;;5042147;28;20183;-91
2022/02/17 06:43:33;;;;;;;36.43;8.53;;;7.00;86.40;;;;;;5061898;28;20180;-92
2022/02/17 06:45:58;;;;;;;42.33;8.33;;;7.00;86.00;;;;;;5041312;28;20182;-90
2022/02/17 06:48:24;;;;;;;39.00;7.97;;;7.10;85.40;;;;;;5043907;28;20204;-91
2022/02/17 06:50:49;;;;;;;37.80;8.33;;;7.10;85.70;;;;;;5044682;28;20283;-92
2022/02/17 06:53:15;;;;;;;50.13;9.70;;;7.10;85.90;;;;;;5042942;28;20223;-91
2022/02/17 06:55:41;;;;;;;42.87;8.13;;;7.00;85.80;;;;;;5040796;28;20569;-91
2022/02/17 06:58:09;;;;;;;24.23;5.93;;;6.90;86.40;;;;;;5041788;28;20666;-92
2022/02/17 07:00:35;;;;;;;22.20;5.47;;;7.00;85.90;;;;;;5040695;28;20630;-91
2022/02/17 07:03:04;;;;;;;31.67;6.93;;;6.90;86.40;;;;;;5060051;28;20194;-91
2022/02/17 07:05:30;;;;;;;36.90;7.03;;;6.90;86.70;;;;;;5040882;28;20664;-91
2022/02/17 07:07:55;;;;;;;33.53;6.80;;;6.90;86.90;;;;;;5040881;28;20192;-91
2022/02/17 07:13:05;;;;;;;39.83;7.37;;;6.80;87.40;;;;;;5059348;28;20167;-91
2022/02/17 07:15:35;;;;;;;35.73;6.83;;;6.70;87.80;;;;;;5039264;28;20213;-91
2022/02/17 07:18:05;;;;;;;36.43;7.30;;;6.70;88.00;;;;;;5056718;28;20242;-91
2022/02/17 07:20:31;;;;;;;37.00;7.53;;;6.60;88.50;;;;;;5039525;28;20176;-92
2022/02/17 07:22:57;;;;;;;34.40;7.60;;;6.60;88.60;;;;;;5038913;28;20664;-90
2022/02/17 07:25:23;;;;;;;30.27;6.37;;;6.60;89.10;;;;;;5038899;28;20214;-90
2022/02/17 07:27:49;;;;;;;17.83;5.07;;;6.50;89.20;;;;;;5039243;28;20480;-91
2022/02/17 07:30:15;;;;;;;32.03;6.90;;;6.40;89.60;;;;;;5039541;28;20203;-91
2022/02/17 07:32:41;;;;;;;32.03;6.73;;;6.50;89.60;;;;;;5038704;28;20665;-91
2022/02/17 07:35:11;;;;;;;23.33;6.03;;;6.50;89.70;;;;;;5039109;28;20179;-91
2022/02/17 07:37:37;;;;;;;27.33;5.57;;;6.60;89.00;;;;;;5055951;28;20188;-91
2022/02/17 07:40:04;;;;;;;27.97;6.13;;;6.60;89.00;;;;;;5038258;28;20171;-90
2022/02/17 07:42:29;;;;;;;24.87;6.07;;;6.50;89.10;;;;;;5056258;28;20172;-91
2022/02/17 07:44:56;;;;;;;26.27;5.83;;;6.60;89.00;;;;;;5038372;28;20168;-91
2022/02/17 07:47:23;;;;;;;26.67;4.93;;;6.60;88.80;;;;;;5038679;28;20565;-90
2022/02/17 07:49:49;;;;;;;31.30;7.13;;;6.60;88.90;;;;;;5038498;28;20186;-90
2022/02/17 07:52:15;;;;;;;30.90;5.33;;;6.70;88.90;;;;;;5039134;28;20302;-91
2022/02/17 07:54:41;;;;;;;31.20;6.90;;;6.70;89.00;;;;;;5037634;28;20206;-91
2022/02/17 07:57:07;;;;;;;28.53;6.50;;;6.60;89.30;;;;;;5037365;28;20206;-90
2022/02/17 07:59:32;;;;;;;27.03;5.77;;;6.60;89.70;;;;;;5037152;28;20540;-89
2022/02/17 08:01:58;;;;;;;25.93;5.90;;;6.50;90.10;;;;;;5037338;28;20211;-90
2022/02/17 08:04:23;;;;;;;35.63;6.87;;;6.50;90.80;;;;;;5038534;28;20203;-91
2022/02/17 08:06:50;;;;;;;26.43;4.90;;;6.50;90.60;;;;;;5038079;28;20172;-91
2022/02/17 08:09:15;;;;;;;26.80;5.60;;;6.50;90.40;;;;;;5039611;28;20175;-92
2022/02/17 08:11:41;;;;;;;32.43;6.60;;;6.50;90.10;;;;;;5041963;28;20237;-89
2022/02/17 08:14:06;;;;;;;25.50;5.83;;;6.50;90.10;;;;;;5039414;28;20179;-91
2022/02/17 08:16:33;;;;;;;26.53;6.30;;;6.50;90.20;;;;;;5056166;28;20172;-91
2022/02/17 08:18:59;;;;;;;28.40;5.33;;;6.50;90.10;;;;;;5038368;28;20200;-90
2022/02/17 08:21:24;;;;;;;22.33;4.50;;;6.50;90.00;;;;;;5055767;28;20532;-90
2022/02/17 08:23:50;;;;;;;25.70;5.07;;;6.60;89.60;;;;;;5037252;28;20184;-91
2022/02/17 08:26:15;;;;;;;23.13;5.50;;;6.70;89.20;;;;;;5038626;28;20282;-90
2022/02/17 08:28:41;;;;;;;18.80;5.33;;;6.60;89.20;;;;;;5037996;28;20199;-90
2022/02/17 08:31:06;;;;;;;25.73;6.00;;;6.70;88.80;;;;;;5036567;28;20230;-90
2022/02/17 08:33:32;;;;;;;28.20;5.07;;;6.70;88.90;;;;;;5036274;28;20176;-89
2022/02/17 08:35:57;;;;;;;25.77;6.00;;;6.70;89.20;;;;;;5036741;28;20176;-90
2022/02/17 08:38:30;;;;;;;20.03;5.67;;;6.70;89.10;;;;;;5053975;28;20195;-90
2022/02/17 08:40:56;;;;;;;26.03;5.30;;;6.70;89.10;;;;;;5038305;28;20195;-91
2022/02/17 08:43:21;;;;;;;17.93;4.77;;;6.80;88.30;;;;;;5038637;28;20241;-90
2022/02/17 08:45:47;;;;;;;26.83;6.17;;;6.70;88.80;;;;;;5040515;28;20210;-90
2022/02/17 08:48:13;;;;;;;28.23;5.10;;;6.80;88.30;;;;;;5054977;28;20279;-91
2022/02/17 08:50:43;;;;;;;25.83;6.17;;;6.70;88.30;;;;;;5036387;28;20199;-91
2022/02/17 08:53:09;;;;;;;18.83;5.40;;;6.70;88.30;;;;;;5037464;28;20178;-90
2022/02/17 08:55:35;;;;;;;24.37;5.80;;;6.80;88.00;;;;;;5038923;28;20176;-90
2022/02/17 08:58:01;;;;;;;24.60;5.87;;;6.80;88.20;;;;;;5036820;28;20192;-91
2022/02/17 09:00:30;;;;;;;24.87;5.60;;;6.80;88.20;;;;;;5036404;28;20210;-91
2022/02/17 09:02:55;;;;;;;16.53;4.30;;;6.70;88.60;;;;;;5037260;28;20575;-90
2022/02/17 09:05:21;;;;;;;18.63;4.17;;;6.60;89.10;;;;;;5036970;28;20201;-89
2022/02/17 09:07:46;;;;;;;23.73;5.50;;;6.40;89.60;;;;;;5052567;28;20190;-89
2022/02/17 09:10:12;;;;;;;16.20;4.77;;;6.30;90.10;;;;;;5053549;28;20176;-90
2022/02/17 09:12:38;;;;;;;15.33;4.00;;;6.30;89.90;;;;;;5053428;28;20200;-90
2022/02/17 09:15:05;;;;;;;16.77;3.87;;;6.40;89.90;;;;;;5035500;28;20175;-89
2022/02/17 09:17:31;;;;;;;22.17;4.63;;;6.40;90.00;;;;;;5035300;28;20197;-90
2022/02/17 09:19:57;;;;;;;19.27;4.23;;;6.40;90.10;;;;;;5053388;28;20254;-89
2022/02/17 09:22:23;;;;;;;14.80;3.50;;;6.40;89.70;;;;;;5035351;28;20254;-90
2022/02/17 09:24:49;;;;;;;19.77;3.13;;;6.40;89.30;;;;;;5035372;28;20179;-90
2022/02/17 09:27:15;;;;;;;13.13;2.80;;;6.40;89.10;;;;;;5035649;28;20607;-89
2022/02/17 09:29:41;;;;;;;16.80;3.33;;;6.40;89.10;;;;;;5035392;28;20179;-89
2022/02/17 09:32:08;;;;;;;15.73;3.60;;;6.50;88.70;;;;;;5035518;28;20200;-89
2022/02/17 09:34:34;;;;;;;16.03;3.10;;;6.50;88.90;;;;;;5035219;28;20171;-89
2022/02/17 09:37:00;;;;;;;15.20;5.43;;;6.60;88.90;;;;;;5035414;28;20191;-90
2022/02/17 09:39:28;;;;;;;12.87;4.30;;;6.70;88.10;;;;;;5035150;28;20202;-90
2022/02/17 09:41:55;;;;;;;21.83;5.27;;;6.70;87.70;;;;;;5035156;28;20184;-89
2022/02/17 09:44:22;;;;;;;12.63;3.70;;;6.80;88.00;;;;;;5035585;28;20180;-90
2022/02/17 09:46:48;;;;;;;17.73;4.30;;;6.70;87.60;;;;;;5035161;28;20175;-91
2022/02/17 09:49:16;;;;;;;11.33;3.37;;;6.80;87.60;;;;;;5035874;28;20214;-90
2022/02/17 09:51:43;;;;;;;14.27;3.23;;;6.80;87.40;;;;;;5035574;28;20231;-90
2022/02/17 09:54:09;;;;;;;17.67;2.80;;;6.80;86.80;;;;;;5035371;28;20182;-90
2022/02/17 09:56:39;;;;;;;9.43;2.53;;;6.80;86.70;;;;;;5035365;28;20179;-90
2022/02/17 09:59:05;;;;;;;14.97;4.10;;;6.80;86.60;;;;;;5035160;28;20176;-91
2022/02/17 10:01:31;;;;;;;13.50;3.97;;;6.70;87.50;;;;;;5035227;28;20172;-90
2022/02/17 10:04:17;;;;;;;12.37;4.10;;;6.70;88.00;;;;;;5052979;28;20192;-90
2022/02/17 10:06:48;;;;;;;17.10;3.80;;;6.60;88.30;;;;;;5035312;28;20176;-90
2022/02/17 10:09:15;;;;;;;25.13;4.33;;;6.60;88.60;;;;;;5035198;28;20744;-90
2022/02/17 10:11:42;;;;;;;15.23;4.20;;;6.50;89.10;;;;;;5035104;28;20202;-90
2022/02/17 10:14:19;;;;;;;15.50;3.63;;;6.50;88.50;;;;;;5035341;28;20242;-90
2022/02/17 10:16:55;;;;;;;20.03;4.43;;;6.50;88.90;;;;;;5035419;28;20171;-92
2022/02/17 10:19:23;;;;;;;27.20;5.33;;;6.50;89.10;;;;;;5037784;28;20181;-90
2022/02/17 10:21:50;;;;;;;22.37;4.27;;;6.50;89.50;;;;;;5038927;28;20224;-90
2022/02/17 10:24:32;;;;;;;17.40;4.20;;;6.40;89.60;;;;;;5056475;28;20200;-92
2022/02/17 10:27:08;;;;;;;24.60;4.93;;;6.40;89.40;;;;;;5038835;28;20196;-89
2022/02/17 10:29:35;;;;;;;15.90;4.43;;;6.40;89.30;;;;;;5038555;28;20178;-90
2022/02/17 10:32:08;;;;;;;28.33;5.10;;;6.50;89.00;;;;;;5037716;28;20426;-89
2022/02/17 10:34:37;;;;;;;23.97;5.87;;;6.60;88.80;;;;;;5056577;28;20642;-91
2022/02/17 10:37:03;;;;;;;30.10;6.13;;;6.70;88.40;;;;;;5056311;28;20187;-91
2022/02/17 10:39:33;;;;;;;18.27;4.47;;;6.70;87.60;;;;;;5038148;28;20194;-90
2022/02/17 10:42:04;;;;;;;12.87;3.83;;;6.70;88.00;;;;;;5038393;28;20169;-91
2022/02/17 10:44:34;;;;;;;19.13;3.77;;;6.70;87.30;;;;;;5038423;28;20176;-91
2022/02/17 10:47:26;;;;;;;16.53;4.03;;;6.70;86.70;;;;;;5038058;28;20293;-91
2022/02/17 10:49:53;;;;;;;16.33;3.30;;;6.70;86.30;;;;;;5038941;28;20259;-90
2022/02/17 10:52:35;;;;;;;13.87;2.80;;;6.70;87.00;;;;;;5039735;28;20199;-90
2022/02/17 10:55:12;;;;;;;13.13;4.67;;;6.70;86.60;;;;;;5042251;28;20633;-91
2022/02/17 10:57:38;;;;;;;21.57;4.50;;;6.70;85.80;;;;;;5041286;28;20195;-93
2022/02/17 11:00:21;;;;;;;11.57;2.87;;;6.70;86.10;;;;;;5042257;28;20199;-92
2022/02/17 11:02:48;;;;;;;18.27;3.30;;;6.70;86.60;;;;;;5059492;28;20259;-91
2022/02/17 11:05:15;;;;;;;8.20;2.20;;;6.60;86.10;;;;;;5045321;28;20172;-93
2022/02/17 11:07:42;;;;;;;6.83;2.50;;;6.60;85.80;;;;;;5043338;28;20206;-92
2022/02/17 11:10:09;;;;;;;9.50;2.40;;;6.60;85.80;;;;;;5042021;28;20187;-92
2022/02/17 11:12:37;;;;;;;6.33;2.23;;;6.60;86.00;;;;;;5043144;28;20578;-92
2022/02/17 11:15:05;;;;;;;9.57;2.87;;;6.50;86.50;;;;;;5044908;28;20182;-92
2022/02/17 11:17:37;;;;;;;10.73;2.57;;;6.30;87.60;;;;;;5045738;28;20195;-92
2022/02/17 11:20:06;;;;;;;13.00;3.40;;;6.20;88.60;;;;;;5060701;28;20212;-91
2022/02/17 11:22:32;;;;;;;14.83;3.37;;;6.20;88.70;;;;;;5039265;28;20185;-92
2022/02/17 11:24:58;;;;;;;16.47;3.80;;;6.20;89.20;;;;;;5045829;28;20210;-94
2022/02/17 11:27:24;;;;;;;18.37;3.70;;;6.30;89.10;;;;;;5044894;28;20204;-90
2022/02/17 11:29:50;;;;;;;20.27;3.50;;;6.30;88.90;;;;;;5038368;28;20186;-92
2022/02/17 11:32:22;;;;;;;14.60;3.40;;;6.30;88.90;;;;;;5040328;28;20322;-89
2022/02/17 11:34:55;;;;;;;11.90;3.17;;;6.30;88.40;;;;;;5037260;28;20230;-89
2022/02/17 11:37:30;;;;;;;14.57;3.40;;;6.30;88.20;;;;;;5037295;28;20199;-89
2022/02/17 11:40:10;;;;;;;16.53;3.87;;;6.30;88.20;;;;;;5038129;28;20245;-89
2022/02/17 11:42:46;;;;;;;15.63;3.67;;;6.30;88.20;;;;;;5037356;28;20229;-88
2022/02/17 11:45:15;;;;;;;17.33;4.20;;;6.20;88.30;;;;;;5036915;28;20179;-89
2022/02/17 11:48:03;;;;;;;18.93;4.77;;;6.10;88.60;;;;;;5037080;28;20201;-89
2022/02/17 11:50:39;;;;;;;15.37;3.57;;;6.00;88.70;;;;;;5038069;28;20211;-91
2022/02/17 11:53:26;;;;;;;11.13;3.47;;;6.00;89.10;;;;;;5039825;28;20228;-92
2022/02/17 11:56:14;;;;;;;22.13;3.60;;;5.90;89.30;;;;;;5037392;28;20182;-90
2022/02/17 11:58:44;;;;;;;13.47;2.77;;;5.90;89.00;;;;;;5026634;28;20344;-92
2022/02/17 12:01:25;;;;;;;7.00;2.83;;;5.90;88.10;;;;;;5037255;28;20194;-90
2022/02/17 12:04:05;;;;;;;12.33;3.17;;;5.80;87.00;;;;;;5036721;28;20221;-90
2022/02/17 12:06:33;;;;;;;2.00;1.80;;;5.70;88.50;;;;;;5055619;28;20162;-91
2022/02/17 12:09:00;;;;;;;7.80;2.30;;;5.60;89.00;;;;;;5038773;28;20200;-92
2022/02/17 12:11:31;;;;;;;12.03;3.70;;;5.50;88.90;;;;;;5055044;28;20196;-91
2022/02/17 12:14:00;;;;;;;8.00;2.30;;;5.60;88.90;;;;;;5039055;28;20208;-91
2022/02/17 12:16:36;;;;;;;18.47;3.93;;;5.60;88.90;;;;;;5036755;28;20175;-91
2022/02/17 12:19:16;;;;;;;14.13;2.73;;;5.50;89.20;;;;;;5037130;28;20667;-92
2022/02/17 12:21:43;;;;;;;9.00;2.53;;;5.50;89.10;;;;;;5037589;28;20190;-91
2022/02/17 12:24:11;;;;;;;13.15;3.83;;;5.50;89.00;;;;;;5035633;28;20416;-91
2022/02/17 12:26:47;;;;;;;12.33;2.83;;;5.50;88.90;;;;;;5038556;28;20182;-90
2022/02/17 12:29:29;;;;;;;13.93;3.50;;;5.50;89.20;;;;;;5038421;28;20167;-91
2022/02/17 12:31:56;;;;;;;18.20;4.37;;;5.50;89.10;;;;;;5057459;28;20205;-91
2022/02/17 12:34:22;;;;;;;15.30;3.43;;;5.50;89.30;;;;;;5037769;28;20178;-91
2022/02/17 12:36:48;;;;;;;16.87;3.30;;;5.50;89.40;;;;;;5037640;28;20208;-92
2022/02/17 12:39:14;;;;;;;12.13;2.63;;;5.40;89.30;;;;;;5041071;28;20225;-90
2022/02/17 12:42:13;;;;;;;11.37;3.73;;;5.40;89.10;;;;;;5036525;28;20180;-90
2022/02/17 12:44:41;;;;;;;14.67;3.77;;;5.30;89.20;;;;;;5036404;28;20172;-90
2022/02/17 12:47:09;;;;;;;9.80;2.83;;;5.20;89.10;;;;;;5036551;28;20205;-91
2022/02/17 12:49:36;;;;;;;18.73;4.03;;;5.20;89.60;;;;;;5038964;28;20592;-90
2022/02/17 12:52:08;;;;;;;5.37;2.63;;;5.20;89.80;;;;;;5038430;28;20208;-91
2022/02/17 12:54:35;;;;;;;9.77;3.13;;;5.20;89.00;;;;;;5038633;28;20168;-90
2022/02/17 12:57:12;;;;;;;8.50;2.47;;;5.20;89.20;;;;;;5047557;28;20184;-93